createdAt,value
2022-12-20T06:55:14.565Z,100976.69
2022-12-20T06:57:41.779Z,100988.03
2022-12-20T07:00:12.706Z,100981.91
2022-12-20T07:02:40.009Z,100974.00
2022-12-20T07:05:08.764Z,100974.69
2022-12-20T07:07:44.779Z,100968.56
2022-12-20T07:10:12.929Z,100973.72
2022-12-20T07:15:29.192Z,100978.72
2022-12-20T07:17:56.461Z,100978.72
2022-12-20T07:20:23.567Z,100978.59
2022-12-20T07:22:50.703Z,100981.97
2022-12-20T07:25:17.960Z,100981.91
2022-12-20T07:27:51.552Z,100994.00
2022-12-20T07:30:19.562Z,100992.28
2022-12-20T07:32:47.468Z,100989.78
2022-12-20T07:35:15.309Z,101006.25
2022-12-20T07:37:43.324Z,101001.06
2022-12-20T07:40:12.081Z,101002.00
2022-12-20T07:42:44.599Z,101008.84
2022-12-20T07:45:15.666Z,101009.66
2022-12-20T07:47:43.715Z,101019.09
2022-12-20T07:50:11.855Z,101015.63
2022-12-20T07:52:40.408Z,101013.97
2022-12-20T07:55:08.788Z,101013.06
2022-12-20T07:57:56.179Z,101012.16
2022-12-20T08:00:25.013Z,101014.63
2022-12-20T08:02:57.024Z,101008.38
2022-12-20T08:05:26.273Z,101003.06
2022-12-20T08:07:59.307Z,101010.09
2022-12-20T08:10:27.839Z,101003.06
2022-12-20T08:12:56.082Z,101012.59
2022-12-20T08:15:23.699Z,101000.28
2022-12-20T08:17:51.382Z,100996.78
2022-12-20T08:20:18.968Z,100995.78
2022-12-20T08:22:49.447Z,101001.94
2022-12-20T08:25:17.064Z,101006.38
2022-12-20T08:27:44.924Z,100998.41
2022-12-20T08:30:12.784Z,101005.31
2022-12-20T08:32:40.150Z,101005.22
2022-12-20T08:35:08.370Z,101000.00
2022-12-20T08:37:35.890Z,100994.72
2022-12-20T08:40:03.616Z,100995.50
2022-12-20T08:42:34.024Z,100986.97
2022-12-20T08:45:01.457Z,100973.00
2022-12-20T08:47:30.107Z,100979.00
2022-12-20T08:49:57.670Z,100983.38
2022-12-20T08:52:25.121Z,100985.03
2022-12-20T08:54:52.883Z,100990.97
2022-12-20T08:57:20.234Z,100996.19
2022-12-20T08:59:47.655Z,100993.59
2022-12-20T09:02:15.297Z,100988.28
2022-12-20T09:04:44.479Z,100985.38
2022-12-20T09:07:12.479Z,100994.06
2022-12-20T09:09:39.879Z,100987.09
2022-12-20T09:12:07.858Z,100981.88
2022-12-20T09:14:35.202Z,100980.97
2022-12-20T09:17:02.505Z,100974.59
2022-12-20T09:19:31.132Z,100980.69
2022-12-20T09:21:58.616Z,100987.59
2022-12-20T09:24:26.119Z,100979.78
2022-12-20T09:26:53.625Z,100977.84
2022-12-20T09:29:26.966Z,100969.16
2022-12-20T09:31:55.984Z,100965.50
2022-12-20T09:34:23.365Z,100982.78
2022-12-20T09:36:50.698Z,100960.78
2022-12-20T09:39:19.346Z,100965.16
2022-12-20T09:41:47.024Z,100952.97
2022-12-20T09:44:19.711Z,100963.13
2022-12-20T09:47:09.809Z,100952.41
2022-12-20T09:49:43.362Z,100963.13
2022-12-20T09:52:40.900Z,100969.91
2022-12-20T09:55:11.175Z,100951.44
2022-12-20T09:58:02.336Z,100954.63
2022-12-20T10:00:30.712Z,100958.94
2022-12-20T10:03:08.958Z,100962.31
2022-12-20T10:05:55.404Z,100963.97
2022-12-20T10:08:46.490Z,100965.59
2022-12-20T10:11:50.185Z,100964.00
2022-12-20T10:14:34.556Z,100956.84
2022-12-20T10:17:11.043Z,100966.28
2022-12-20T10:20:00.775Z,100960.94
2022-12-20T10:22:46.887Z,100962.06
2022-12-20T10:25:23.241Z,100965.41
2022-12-20T10:27:54.399Z,100958.34
2022-12-20T10:30:24.774Z,100949.56
2022-12-20T10:32:55.252Z,100941.03
2022-12-20T10:35:34.099Z,100942.88
2022-12-20T10:38:12.521Z,100927.13
2022-12-20T10:43:40.745Z,100906.88
2022-12-20T10:46:09.039Z,100900.50
2022-12-20T10:48:39.802Z,100904.47
2022-12-20T10:51:15.518Z,100898.94
2022-12-20T10:53:51.720Z,100889.00
2022-12-20T10:56:19.886Z,100888.59
2022-12-20T10:59:17.759Z,100886.34
2022-12-20T11:01:47.132Z,100883.66
2022-12-20T11:04:30.129Z,100870.44
2022-12-20T11:07:00.048Z,100871.09
2022-12-20T11:09:31.023Z,100868.16
2022-12-20T11:12:12.154Z,100879.72
2022-12-20T11:14:40.669Z,100854.59
2022-12-20T11:17:20.273Z,100862.44
2022-12-20T11:20:16.418Z,100847.75
2022-12-20T11:22:57.694Z,100830.91
2022-12-20T11:25:44.036Z,100842.94
2022-12-20T11:28:21.865Z,100837.63
2022-12-20T11:31:06.494Z,100839.38
2022-12-20T11:33:56.048Z,100844.44
2022-12-20T11:37:00.512Z,100827.63
2022-12-20T11:39:46.301Z,100832.84
2022-12-20T11:42:25.878Z,100825.00
2022-12-20T11:45:28.637Z,100821.28
2022-12-20T11:48:15.825Z,100821.78
2022-12-20T11:51:03.821Z,100810.47
2022-12-20T11:53:53.328Z,100814.84
2022-12-20T11:56:43.960Z,100798.19
2022-12-20T11:59:45.780Z,100810.41
2022-12-20T12:02:23.922Z,100816.41
2022-12-20T12:04:59.944Z,100813.06
2022-12-20T12:07:31.164Z,100807.00
2022-12-20T12:10:00.027Z,100812.03
2022-12-20T12:13:05.740Z,100810.22
2022-12-20T12:15:54.283Z,100809.28
2022-12-20T12:18:24.756Z,100805.00
2022-12-20T12:21:03.503Z,100802.19
2022-12-20T12:23:51.324Z,100803.31
2022-12-20T12:26:27.709Z,100773.91
2022-12-20T12:29:01.131Z,100781.34
2022-12-20T12:32:02.638Z,100775.97
2022-12-20T12:34:58.413Z,100779.66
2022-12-20T12:37:28.835Z,100786.03
2022-12-20T12:40:28.347Z,100766.84
2022-12-20T12:43:06.150Z,100767.56
2022-12-20T12:45:43.914Z,100771.06
2022-12-20T12:48:27.821Z,100764.84
2022-12-20T12:50:57.452Z,100760.44
2022-12-20T12:53:43.252Z,100755.22
2022-12-20T12:56:43.268Z,100739.69
2022-12-20T12:59:20.216Z,100742.19
2022-12-20T13:01:56.025Z,100731.69
2022-12-20T13:04:26.871Z,100737.56
2022-12-20T13:07:00.605Z,100739.19
2022-12-20T13:09:28.403Z,100732.25
2022-12-20T13:12:01.320Z,100732.81
2022-12-20T13:14:29.612Z,100727.59
2022-12-20T13:17:14.660Z,100737.28
2022-12-20T13:19:52.442Z,100735.72
2022-12-20T13:22:26.842Z,100734.53
2022-12-20T13:25:04.141Z,100732.34
2022-12-20T13:27:41.982Z,100738.13
2022-12-20T13:30:12.215Z,100740.75
2022-12-20T13:32:48.892Z,100734.03
2022-12-20T13:35:25.840Z,100741.81
2022-12-20T13:38:06.093Z,100743.75
2022-12-20T13:40:56.473Z,100747.34
2022-12-20T13:43:23.710Z,100746.91
2022-12-20T13:45:58.066Z,100744.53
2022-12-20T13:48:41.777Z,100733.00
2022-12-20T13:51:10.820Z,100718.00
2022-12-20T13:53:38.814Z,100730.56
2022-12-20T13:56:27.908Z,100727.94
2022-12-20T13:58:57.511Z,100734.28
2022-12-20T14:01:25.573Z,100728.13
2022-12-20T14:03:53.612Z,100754.38
2022-12-20T14:06:26.589Z,100732.03
2022-12-20T14:08:54.828Z,100743.34
2022-12-20T14:11:27.135Z,100732.06
2022-12-20T14:13:59.949Z,100732.88
2022-12-20T15:09:14.110Z,100693.34
2022-12-20T16:07:16.874Z,100641.69
2022-12-20T16:18:42.107Z,100630.09
2022-12-20T17:47:04.208Z,100627.00
2022-12-20T19:05:55.125Z,100582.53
2022-12-20T19:08:23.105Z,100571.91
